Larkspur — C6BR6 — position and weather

sailwx.info

Track history (hours):
 
Tides and Currents Weather Stations Pressure Air Temp Water Temp Dewpoint Dewpoint Depression Visibility Wind Speed Wind Dir Waves Ship Positions

Larkspur

Operator: Transeuropa Lines

Last reported at 2018-Sep-11 07:29 UTC. Time now 2018-Sep-24 21:53 UTC.
Position S 34°54' E 019°12'.
Warning: this ship's position is 13 days out of date.

Length 225 m; draft 11.7 m.

Type: Tanker. MMSI: 311000344.

Date/timePositionNaut miles runAvg speedWind from/ knotsBaromVisibWave heightAir tempDewpointWater temp
2018-Sep-11 07:29S 34°54' E 019°12'715.0
2018-Sep-11 07:02S 34°51' E 019°05'115.1
2018-Sep-11 07:00S 34°51' E 019°04'814.9
2018-Sep-11 06:28S 34°47' E 018°56'615.0
2018-Sep-11 06:02S 34°44' E 018°49'114.8
2018-Sep-11 05:59S 34°44' E 018°48'1314.9
2018-Sep-11 05:07S 34°37' E 018°35'114.8
2018-Sep-11 05:03S 34°37' E 018°34'114.8
2018-Sep-11 05:01S 34°36' E 018°33'815.0
2018-Sep-11 04:30S 34°33' E 018°25'814.6
2018-Sep-11 03:59S 34°29' E 018°17'714.4
2018-Sep-11 03:30S 34°24' E 018°11'614.3
2018-Sep-11 03:03S 34°20' E 018°05'114.3
2018-Sep-11 03:00S 34°19' E 018°04'714.4
2018-Sep-11 02:30S 34°14' E 017°58'714.5
2018-Sep-11 02:03S 34°10' E 017°52'114.5
2018-Sep-11 02:00S 34°09' E 017°52'814.6
2018-Sep-11 01:29S 34°04' E 017°45'714.5
2018-Sep-11 01:01S 33°59' E 017°39'014.7
2018-Sep-11 01:00S 33°59' E 017°39'1014.4
2018-Sep-11 00:17S 33°52' E 017°31'314.4
2018-Sep-11 00:03S 33°49' E 017°28'114.5
2018-Sep-10 23:59S 33°49' E 017°27'  
Track history (hours):
 
Tides and Currents Weather Stations Pressure Air Temp Water Temp Dewpoint Dewpoint Depression Visibility Wind Speed Wind Dir Waves Ship Positions

Larkspur

Operator: Transeuropa Lines

Last reported at 2018-Sep-11 07:29 UTC. Time now 2018-Sep-24 21:53 UTC.
Position S 34°54' E 019°12'.
Warning: this ship's position is 13 days out of date.

Length 225 m; draft 11.7 m.

Type: Tanker. MMSI: 311000344.

Date/timePositionNaut miles runAvg speedWind from/ knotsBaromVisibWave heightAir tempDewpointWater temp
2018-Sep-11 07:29S 34°54' E 019°12'715.0
2018-Sep-11 07:02S 34°51' E 019°05'115.1
2018-Sep-11 07:00S 34°51' E 019°04'814.9
2018-Sep-11 06:28S 34°47' E 018°56'615.0
2018-Sep-11 06:02S 34°44' E 018°49'114.8
2018-Sep-11 05:59S 34°44' E 018°48'1314.9
2018-Sep-11 05:07S 34°37' E 018°35'114.8
2018-Sep-11 05:03S 34°37' E 018°34'114.8
2018-Sep-11 05:01S 34°36' E 018°33'815.0
2018-Sep-11 04:30S 34°33' E 018°25'814.6
2018-Sep-11 03:59S 34°29' E 018°17'714.4
2018-Sep-11 03:30S 34°24' E 018°11'614.3
2018-Sep-11 03:03S 34°20' E 018°05'114.3
2018-Sep-11 03:00S 34°19' E 018°04'714.4
2018-Sep-11 02:30S 34°14' E 017°58'714.5
2018-Sep-11 02:03S 34°10' E 017°52'114.5
2018-Sep-11 02:00S 34°09' E 017°52'814.6
2018-Sep-11 01:29S 34°04' E 017°45'714.5
2018-Sep-11 01:01S 33°59' E 017°39'014.7
2018-Sep-11 01:00S 33°59' E 017°39'1014.4
2018-Sep-11 00:17S 33°52' E 017°31'314.4
2018-Sep-11 00:03S 33°49' E 017°28'114.5
2018-Sep-10 23:59S 33°49' E 017°27'  

Dump ship's entire track history